sensor_id;sensor_type;location;lat;lon;timestamp;temperature;humidity
10390;DHT22;5241;47.830;12.972;2023-11-19T00:01:47;4.40;99.90
10390;DHT22;5241;47.830;12.972;2023-11-19T00:04:12;4.40;99.90
10390;DHT22;5241;47.830;12.972;2023-11-19T00:06:39;4.40;99.90
10390;DHT22;5241;47.830;12.972;2023-11-19T00:09:04;4.40;99.90
10390;DHT22;5241;47.830;12.972;2023-11-19T00:11:30;4.50;99.90
10390;DHT22;5241;47.830;12.972;2023-11-19T00:13:55;4.50;99.90
10390;DHT22;5241;47.830;12.972;2023-11-19T00:16:21;4.50;99.90
10390;DHT22;5241;47.830;12.972;2023-11-19T00:18:46;4.50;99.90
10390;DHT22;5241;47.830;12.972;2023-11-19T00:21:12;4.50;99.90
10390;DHT22;5241;47.830;12.972;2023-11-19T00:23:38;4.50;99.90
10390;DHT22;5241;47.830;12.972;2023-11-19T00:26:04;4.50;99.90
10390;DHT22;5241;47.830;12.972;2023-11-19T00:28:34;4.60;99.90
10390;DHT22;5241;47.830;12.972;2023-11-19T00:30:59;4.60;99.90
10390;DHT22;5241;47.830;12.972;2023-11-19T00:33:25;4.60;99.90
10390;DHT22;5241;47.830;12.972;2023-11-19T00:35:50;4.60;99.90
10390;DHT22;5241;47.830;12.972;2023-11-19T00:38:16;4.60;99.90
10390;DHT22;5241;47.830;12.972;2023-11-19T00:40:42;4.60;99.90
10390;DHT22;5241;47.830;12.972;2023-11-19T00:43:07;4.60;99.90
10390;DHT22;5241;47.830;12.972;2023-11-19T00:45:33;4.60;99.90
10390;DHT22;5241;47.830;12.972;2023-11-19T00:47:58;4.60;99.90
10390;DHT22;5241;47.830;12.972;2023-11-19T00:50:25;4.60;99.90
10390;DHT22;5241;47.830;12.972;2023-11-19T00:52:50;4.60;99.90
10390;DHT22;5241;47.830;12.972;2023-11-19T00:55:16;4.60;99.90
10390;DHT22;5241;47.830;12.972;2023-11-19T00:57:43;4.60;99.90
10390;DHT22;5241;47.830;12.972;2023-11-19T01:00:09;4.70;99.90
10390;DHT22;5241;47.830;12.972;2023-11-19T01:02:45;4.70;99.90
10390;DHT22;5241;47.830;12.972;2023-11-19T01:05:10;4.70;99.90
10390;DHT22;5241;47.830;12.972;2023-11-19T01:07:39;4.70;99.90
10390;DHT22;5241;47.830;12.972;2023-11-19T01:10:06;4.70;99.90
10390;DHT22;5241;47.830;12.972;2023-11-19T01:12:32;4.70;99.90
10390;DHT22;5241;47.830;12.972;2023-11-19T01:14:58;4.70;99.90
10390;DHT22;5241;47.830;12.972;2023-11-19T01:17:23;4.70;99.90
10390;DHT22;5241;47.830;12.972;2023-11-19T01:19:49;4.70;99.90
10390;DHT22;5241;47.830;12.972;2023-11-19T01:22:15;4.70;99.90
10390;DHT22;5241;47.830;12.972;2023-11-19T01:24:41;4.70;99.90
10390;DHT22;5241;47.830;12.972;2023-11-19T01:27:06;4.70;99.90
10390;DHT22;5241;47.830;12.972;2023-11-19T01:29:32;4.70;99.90
10390;DHT22;5241;47.830;12.972;2023-11-19T01:31:58;4.70;99.90
10390;DHT22;5241;47.830;12.972;2023-11-19T01:34:24;4.70;99.90
10390;DHT22;5241;47.830;12.972;2023-11-19T01:36:49;4.70;99.90
10390;DHT22;5241;47.830;12.972;2023-11-19T01:39:15;4.70;99.90
10390;DHT22;5241;47.830;12.972;2023-11-19T01:41:45;4.70;99.90
10390;DHT22;5241;47.830;12.972;2023-11-19T01:44:11;4.70;99.90
10390;DHT22;5241;47.830;12.972;2023-11-19T01:46:41;4.70;99.90
10390;DHT22;5241;47.830;12.972;2023-11-19T01:49:07;4.70;99.90
10390;DHT22;5241;47.830;12.972;2023-11-19T01:51:34;4.70;99.90
10390;DHT22;5241;47.830;12.972;2023-11-19T01:54:00;4.70;99.90
10390;DHT22;5241;47.830;12.972;2023-11-19T01:56:27;4.70;99.90
10390;DHT22;5241;47.830;12.972;2023-11-19T01:58:54;4.70;99.90
10390;DHT22;5241;47.830;12.972;2023-11-19T02:01:20;4.80;99.90
10390;DHT22;5241;47.830;12.972;2023-11-19T02:03:46;4.80;99.90
10390;DHT22;5241;47.830;12.972;2023-11-19T02:06:12;4.80;99.90
10390;DHT22;5241;47.830;12.972;2023-11-19T02:08:39;4.80;99.90
10390;DHT22;5241;47.830;12.972;2023-11-19T02:11:05;4.80;99.90
10390;DHT22;5241;47.830;12.972;2023-11-19T02:13:32;4.80;99.90
10390;DHT22;5241;47.830;12.972;2023-11-19T02:15:58;4.80;99.90
10390;DHT22;5241;47.830;12.972;2023-11-19T02:18:26;4.80;99.90
10390;DHT22;5241;47.830;12.972;2023-11-19T02:20:58;4.80;99.90
10390;DHT22;5241;47.830;12.972;2023-11-19T02:23:28;4.80;99.90
10390;DHT22;5241;47.830;12.972;2023-11-19T02:28:26;4.80;99.90
10390;DHT22;5241;47.830;12.972;2023-11-19T02:30:52;4.80;99.90
10390;DHT22;5241;47.830;12.972;2023-11-19T02:33:18;4.80;99.90
10390;DHT22;5241;47.830;12.972;2023-11-19T02:35:44;4.90;99.90
10390;DHT22;5241;47.830;12.972;2023-11-19T02:38:09;4.90;99.90
10390;DHT22;5241;47.830;12.972;2023-11-19T02:40:36;4.90;99.90
10390;DHT22;5241;47.830;12.972;2023-11-19T02:43:02;4.90;99.90
10390;DHT22;5241;47.830;12.972;2023-11-19T02:45:30;4.90;99.90
10390;DHT22;5241;47.830;12.972;2023-11-19T02:47:56;4.90;99.90
10390;DHT22;5241;47.830;12.972;2023-11-19T02:50:22;5.00;99.90
10390;DHT22;5241;47.830;12.972;2023-11-19T02:52:51;5.00;99.90
10390;DHT22;5241;47.830;12.972;2023-11-19T02:55:17;5.00;99.90
10390;DHT22;5241;47.830;12.972;2023-11-19T02:57:43;5.00;99.90
10390;DHT22;5241;47.830;12.972;2023-11-19T03:00:17;5.00;99.90
10390;DHT22;5241;47.830;12.972;2023-11-19T03:02:44;5.00;99.90
10390;DHT22;5241;47.830;12.972;2023-11-19T03:05:13;5.00;99.90
10390;DHT22;5241;47.830;12.972;2023-11-19T03:07:41;5.00;99.90
10390;DHT22;5241;47.830;12.972;2023-11-19T03:10:08;5.00;99.90
10390;DHT22;5241;47.830;12.972;2023-11-19T03:12:34;5.00;99.90
10390;DHT22;5241;47.830;12.972;2023-11-19T03:15:00;5.10;99.90
10390;DHT22;5241;47.830;12.972;2023-11-19T03:17:26;5.00;99.90
10390;DHT22;5241;47.830;12.972;2023-11-19T03:19:52;5.00;99.90
10390;DHT22;5241;47.830;12.972;2023-11-19T03:22:17;5.00;99.90
10390;DHT22;5241;47.830;12.972;2023-11-19T03:24:43;5.00;99.90
10390;DHT22;5241;47.830;12.972;2023-11-19T03:27:08;5.00;99.90
10390;DHT22;5241;47.830;12.972;2023-11-19T03:29:34;5.00;99.90
10390;DHT22;5241;47.830;12.972;2023-11-19T03:31:59;5.00;99.90
10390;DHT22;5241;47.830;12.972;2023-11-19T03:34:25;5.00;99.90
10390;DHT22;5241;47.830;12.972;2023-11-19T03:36:51;5.00;99.90
10390;DHT22;5241;47.830;12.972;2023-11-19T03:39:17;5.00;99.90
10390;DHT22;5241;47.830;12.972;2023-11-19T03:41:45;5.00;99.90
10390;DHT22;5241;47.830;12.972;2023-11-19T03:44:12;5.10;99.90
10390;DHT22;5241;47.830;12.972;2023-11-19T03:46:37;5.10;99.90
10390;DHT22;5241;47.830;12.972;2023-11-19T03:49:03;5.10;99.90
10390;DHT22;5241;47.830;12.972;2023-11-19T03:51:29;5.10;99.90
10390;DHT22;5241;47.830;12.972;2023-11-19T03:53:55;5.10;99.90
10390;DHT22;5241;47.830;12.972;2023-11-19T03:56:20;5.10;99.90
10390;DHT22;5241;47.830;12.972;2023-11-19T03:58:46;5.10;99.90
10390;DHT22;5241;47.830;12.972;2023-11-19T04:01:12;5.20;99.90
10390;DHT22;5241;47.830;12.972;2023-11-19T04:03:38;5.20;99.90
10390;DHT22;5241;47.830;12.972;2023-11-19T04:06:04;5.20;99.90
10390;DHT22;5241;47.830;12.972;2023-11-19T04:08:30;5.20;99.90
10390;DHT22;5241;47.830;12.972;2023-11-19T04:10:55;5.20;99.90
10390;DHT22;5241;47.830;12.972;2023-11-19T04:13:21;5.20;99.90
10390;DHT22;5241;47.830;12.972;2023-11-19T04:15:49;5.20;99.90
10390;DHT22;5241;47.830;12.972;2023-11-19T04:18:15;5.20;99.90
10390;DHT22;5241;47.830;12.972;2023-11-19T04:20:40;5.20;99.90
10390;DHT22;5241;47.830;12.972;2023-11-19T04:23:10;5.20;99.90
10390;DHT22;5241;47.830;12.972;2023-11-19T04:25:36;5.30;99.90
10390;DHT22;5241;47.830;12.972;2023-11-19T04:28:02;5.30;99.90
10390;DHT22;5241;47.830;12.972;2023-11-19T04:30:28;5.30;99.90
10390;DHT22;5241;47.830;12.972;2023-11-19T04:32:54;5.30;99.90
10390;DHT22;5241;47.830;12.972;2023-11-19T04:35:19;5.30;99.90
10390;DHT22;5241;47.830;12.972;2023-11-19T04:37:45;5.30;99.90
10390;DHT22;5241;47.830;12.972;2023-11-19T04:40:11;5.30;99.90
10390;DHT22;5241;47.830;12.972;2023-11-19T04:42:37;5.30;99.90
10390;DHT22;5241;47.830;12.972;2023-11-19T04:45:06;5.30;99.90
10390;DHT22;5241;47.830;12.972;2023-11-19T04:47:32;5.30;99.90
10390;DHT22;5241;47.830;12.972;2023-11-19T04:49:58;5.30;99.90
10390;DHT22;5241;47.830;12.972;2023-11-19T04:52:24;5.30;99.90
10390;DHT22;5241;47.830;12.972;2023-11-19T04:54:50;5.30;99.90
10390;DHT22;5241;47.830;12.972;2023-11-19T04:57:15;5.30;99.90
10390;DHT22;5241;47.830;12.972;2023-11-19T04:59:41;5.40;99.90
10390;DHT22;5241;47.830;12.972;2023-11-19T05:02:08;5.40;99.90
10390;DHT22;5241;47.830;12.972;2023-11-19T05:04:34;5.40;99.90
10390;DHT22;5241;47.830;12.972;2023-11-19T05:07:00;5.40;99.90
10390;DHT22;5241;47.830;12.972;2023-11-19T05:09:26;5.40;99.90
10390;DHT22;5241;47.830;12.972;2023-11-19T05:11:51;5.50;99.90
10390;DHT22;5241;47.830;12.972;2023-11-19T05:14:17;5.50;99.90
10390;DHT22;5241;47.830;12.972;2023-11-19T05:16:44;5.50;99.90
10390;DHT22;5241;47.830;12.972;2023-11-19T05:19:09;5.50;99.90
10390;DHT22;5241;47.830;12.972;2023-11-19T05:21:35;5.50;99.90
10390;DHT22;5241;47.830;12.972;2023-11-19T05:24:04;5.60;99.90
10390;DHT22;5241;47.830;12.972;2023-11-19T05:26:30;5.50;99.90
10390;DHT22;5241;47.830;12.972;2023-11-19T05:28:56;5.60;99.90
10390;DHT22;5241;47.830;12.972;2023-11-19T05:31:21;5.50;99.90
10390;DHT22;5241;47.830;12.972;2023-11-19T05:33:47;5.60;99.90
10390;DHT22;5241;47.830;12.972;2023-11-19T05:36:13;5.60;99.90
10390;DHT22;5241;47.830;12.972;2023-11-19T05:38:39;5.60;99.90
10390;DHT22;5241;47.830;12.972;2023-11-19T05:41:05;5.50;99.90
10390;DHT22;5241;47.830;12.972;2023-11-19T05:43:34;5.60;99.90
10390;DHT22;5241;47.830;12.972;2023-11-19T05:45:59;5.50;99.90
10390;DHT22;5241;47.830;12.972;2023-11-19T05:48:27;5.60;99.90
10390;DHT22;5241;47.830;12.972;2023-11-19T05:50:53;5.60;99.90
10390;DHT22;5241;47.830;12.972;2023-11-19T05:53:19;5.70;99.90
10390;DHT22;5241;47.830;12.972;2023-11-19T05:55:44;5.60;99.90
10390;DHT22;5241;47.830;12.972;2023-11-19T05:58:14;5.60;99.90
10390;DHT22;5241;47.830;12.972;2023-11-19T06:00:40;5.70;99.90
10390;DHT22;5241;47.830;12.972;2023-11-19T06:03:07;5.70;99.90
10390;DHT22;5241;47.830;12.972;2023-11-19T06:05:32;5.60;99.90
10390;DHT22;5241;47.830;12.972;2023-11-19T06:07:58;5.60;99.90
10390;DHT22;5241;47.830;12.972;2023-11-19T06:10:24;5.60;99.90
10390;DHT22;5241;47.830;12.972;2023-11-19T06:12:58;5.60;99.90
10390;DHT22;5241;47.830;12.972;2023-11-19T06:15:28;5.60;99.90
10390;DHT22;5241;47.830;12.972;2023-11-19T06:17:54;5.70;99.90
10390;DHT22;5241;47.830;12.972;2023-11-19T06:20:20;5.70;99.90
10390;DHT22;5241;47.830;12.972;2023-11-19T06:22:46;5.70;99.90
10390;DHT22;5241;47.830;12.972;2023-11-19T06:25:12;5.70;99.90
10390;DHT22;5241;47.830;12.972;2023-11-19T06:27:40;5.70;99.90
10390;DHT22;5241;47.830;12.972;2023-11-19T06:30:06;5.70;99.90
10390;DHT22;5241;47.830;12.972;2023-11-19T06:32:32;5.70;99.90
10390;DHT22;5241;47.830;12.972;2023-11-19T06:34:58;5.70;99.90
10390;DHT22;5241;47.830;12.972;2023-11-19T06:37:23;5.70;99.90
10390;DHT22;5241;47.830;12.972;2023-11-19T06:39:49;5.80;99.90
10390;DHT22;5241;47.830;12.972;2023-11-19T06:42:14;5.70;99.90
10390;DHT22;5241;47.830;12.972;2023-11-19T06:44:40;5.70;99.90
10390;DHT22;5241;47.830;12.972;2023-11-19T06:47:05;5.80;99.90
10390;DHT22;5241;47.830;12.972;2023-11-19T06:49:31;5.80;99.90
10390;DHT22;5241;47.830;12.972;2023-11-19T06:51:58;5.70;99.90
10390;DHT22;5241;47.830;12.972;2023-11-19T06:54:23;5.80;99.90
10390;DHT22;5241;47.830;12.972;2023-11-19T06:56:49;5.80;99.90
10390;DHT22;5241;47.830;12.972;2023-11-19T06:59:14;5.90;99.90
10390;DHT22;5241;47.830;12.972;2023-11-19T07:01:40;5.80;99.90
10390;DHT22;5241;47.830;12.972;2023-11-19T07:04:08;5.90;99.90
10390;DHT22;5241;47.830;12.972;2023-11-19T07:06:35;5.90;99.90
10390;DHT22;5241;47.830;12.972;2023-11-19T07:09:02;5.90;99.90
10390;DHT22;5241;47.830;12.972;2023-11-19T07:11:35;5.90;99.90
10390;DHT22;5241;47.830;12.972;2023-11-19T07:14:02;6.00;99.90
10390;DHT22;5241;47.830;12.972;2023-11-19T07:16:28;6.00;99.90
10390;DHT22;5241;47.830;12.972;2023-11-19T07:18:53;6.00;99.90
10390;DHT22;5241;47.830;12.972;2023-11-19T07:21:19;6.00;99.90
10390;DHT22;5241;47.830;12.972;2023-11-19T07:23:45;6.00;99.90
10390;DHT22;5241;47.830;12.972;2023-11-19T07:26:12;6.00;99.90
10390;DHT22;5241;47.830;12.972;2023-11-19T07:28:37;6.10;99.90
10390;DHT22;5241;47.830;12.972;2023-11-19T07:31:05;6.10;99.90
10390;DHT22;5241;47.830;12.972;2023-11-19T07:33:33;6.10;99.90
10390;DHT22;5241;47.830;12.972;2023-11-19T07:35:59;6.10;99.90
10390;DHT22;5241;47.830;12.972;2023-11-19T07:38:24;6.10;99.90
10390;DHT22;5241;47.830;12.972;2023-11-19T07:40:50;6.10;99.90
10390;DHT22;5241;47.830;12.972;2023-11-19T07:43:15;6.10;99.90
10390;DHT22;5241;47.830;12.972;2023-11-19T07:45:41;6.10;99.90
10390;DHT22;5241;47.830;12.972;2023-11-19T07:48:09;6.10;99.90
10390;DHT22;5241;47.830;12.972;2023-11-19T07:50:35;6.10;99.90
10390;DHT22;5241;47.830;12.972;2023-11-19T07:53:01;6.10;99.90
10390;DHT22;5241;47.830;12.972;2023-11-19T07:55:27;6.20;99.90
10390;DHT22;5241;47.830;12.972;2023-11-19T07:57:53;6.20;99.90
10390;DHT22;5241;47.830;12.972;2023-11-19T08:00:18;6.20;99.90
10390;DHT22;5241;47.830;12.972;2023-11-19T08:02:45;6.20;99.90
10390;DHT22;5241;47.830;12.972;2023-11-19T08:05:10;6.30;99.90
10390;DHT22;5241;47.830;12.972;2023-11-19T08:07:37;6.30;99.90
10390;DHT22;5241;47.830;12.972;2023-11-19T08:10:04;6.30;99.90
10390;DHT22;5241;47.830;12.972;2023-11-19T08:12:30;6.30;99.90
10390;DHT22;5241;47.830;12.972;2023-11-19T08:14:56;6.40;99.90
10390;DHT22;5241;47.830;12.972;2023-11-19T08:17:24;6.40;99.90
10390;DHT22;5241;47.830;12.972;2023-11-19T08:19:50;6.50;99.90
10390;DHT22;5241;47.830;12.972;2023-11-19T08:22:15;6.50;99.90
10390;DHT22;5241;47.830;12.972;2023-11-19T08:24:42;6.50;99.90
10390;DHT22;5241;47.830;12.972;2023-11-19T08:27:08;6.50;99.90
10390;DHT22;5241;47.830;12.972;2023-11-19T08:29:34;6.60;99.90
10390;DHT22;5241;47.830;12.972;2023-11-19T08:32:02;6.60;99.90
10390;DHT22;5241;47.830;12.972;2023-11-19T08:34:29;6.60;99.90
10390;DHT22;5241;47.830;12.972;2023-11-19T08:36:55;6.50;99.90
10390;DHT22;5241;47.830;12.972;2023-11-19T08:39:21;6.60;99.90
10390;DHT22;5241;47.830;12.972;2023-11-19T08:41:49;6.60;99.90
10390;DHT22;5241;47.830;12.972;2023-11-19T08:44:16;6.70;99.90
10390;DHT22;5241;47.830;12.972;2023-11-19T08:46:51;6.70;99.90
10390;DHT22;5241;47.830;12.972;2023-11-19T08:49:17;6.80;99.90
10390;DHT22;5241;47.830;12.972;2023-11-19T08:51:42;6.80;99.90
10390;DHT22;5241;47.830;12.972;2023-11-19T08:54:08;6.80;99.90
10390;DHT22;5241;47.830;12.972;2023-11-19T08:56:34;6.80;99.90
10390;DHT22;5241;47.830;12.972;2023-11-19T08:59:01;6.80;99.90
10390;DHT22;5241;47.830;12.972;2023-11-19T09:01:26;6.80;99.90
10390;DHT22;5241;47.830;12.972;2023-11-19T09:03:52;6.80;99.90
10390;DHT22;5241;47.830;12.972;2023-11-19T09:06:17;6.90;99.90
10390;DHT22;5241;47.830;12.972;2023-11-19T09:08:43;6.90;99.90
10390;DHT22;5241;47.830;12.972;2023-11-19T09:11:09;7.00;99.90
10390;DHT22;5241;47.830;12.972;2023-11-19T09:13:35;7.00;99.90
10390;DHT22;5241;47.830;12.972;2023-11-19T09:16:01;7.10;99.90
10390;DHT22;5241;47.830;12.972;2023-11-19T09:18:30;7.10;99.90
10390;DHT22;5241;47.830;12.972;2023-11-19T09:20:55;7.10;99.90
10390;DHT22;5241;47.830;12.972;2023-11-19T09:23:21;7.10;99.90
10390;DHT22;5241;47.830;12.972;2023-11-19T09:25:47;7.10;99.90
10390;DHT22;5241;47.830;12.972;2023-11-19T09:28:12;7.20;99.90
10390;DHT22;5241;47.830;12.972;2023-11-19T09:30:39;7.20;99.90
10390;DHT22;5241;47.830;12.972;2023-11-19T09:33:05;7.10;99.90
10390;DHT22;5241;47.830;12.972;2023-11-19T09:35:31;7.10;99.90
10390;DHT22;5241;47.830;12.972;2023-11-19T09:37:56;7.20;99.90
10390;DHT22;5241;47.830;12.972;2023-11-19T09:40:22;7.20;99.90
10390;DHT22;5241;47.830;12.972;2023-11-19T09:42:48;7.40;99.90
10390;DHT22;5241;47.830;12.972;2023-11-19T09:45:15;7.50;99.90
10390;DHT22;5241;47.830;12.972;2023-11-19T09:47:45;7.50;99.90
10390;DHT22;5241;47.830;12.972;2023-11-19T09:50:17;7.60;99.90
10390;DHT22;5241;47.830;12.972;2023-11-19T09:52:44;7.60;99.90
10390;DHT22;5241;47.830;12.972;2023-11-19T09:55:10;7.70;99.90
10390;DHT22;5241;47.830;12.972;2023-11-19T09:57:40;7.80;99.90
10390;DHT22;5241;47.830;12.972;2023-11-19T10:00:08;7.80;99.90
10390;DHT22;5241;47.830;12.972;2023-11-19T10:02:36;7.80;99.90
10390;DHT22;5241;47.830;12.972;2023-11-19T10:05:06;7.70;99.90
10390;DHT22;5241;47.830;12.972;2023-11-19T10:07:32;7.70;99.90
10390;DHT22;5241;47.830;12.972;2023-11-19T10:10:02;7.70;99.90
10390;DHT22;5241;47.830;12.972;2023-11-19T10:12:29;7.70;99.90
10390;DHT22;5241;47.830;12.972;2023-11-19T10:14:57;7.80;99.90
10390;DHT22;5241;47.830;12.972;2023-11-19T10:17:36;7.90;99.90
10390;DHT22;5241;47.830;12.972;2023-11-19T10:20:01;7.90;99.90
10390;DHT22;5241;47.830;12.972;2023-11-19T10:22:28;7.90;99.90
10390;DHT22;5241;47.830;12.972;2023-11-19T10:24:54;8.00;99.90
10390;DHT22;5241;47.830;12.972;2023-11-19T10:27:19;8.10;99.90
10390;DHT22;5241;47.830;12.972;2023-11-19T10:29:48;8.00;99.90
10390;DHT22;5241;47.830;12.972;2023-11-19T10:32:14;8.10;99.90
10390;DHT22;5241;47.830;12.972;2023-11-19T10:34:42;8.10;99.90
10390;DHT22;5241;47.830;12.972;2023-11-19T10:37:08;8.10;99.90
10390;DHT22;5241;47.830;12.972;2023-11-19T10:39:54;8.20;99.90
10390;DHT22;5241;47.830;12.972;2023-11-19T10:42:20;8.30;99.90
10390;DHT22;5241;47.830;12.972;2023-11-19T10:44:46;8.30;99.90
10390;DHT22;5241;47.830;12.972;2023-11-19T10:47:13;8.30;99.90
10390;DHT22;5241;47.830;12.972;2023-11-19T10:49:39;8.30;99.90
10390;DHT22;5241;47.830;12.972;2023-11-19T10:52:05;8.40;99.90
10390;DHT22;5241;47.830;12.972;2023-11-19T10:54:34;8.40;99.90
10390;DHT22;5241;47.830;12.972;2023-11-19T10:57:02;8.60;99.90
10390;DHT22;5241;47.830;12.972;2023-11-19T10:59:30;8.60;99.90
10390;DHT22;5241;47.830;12.972;2023-11-19T11:01:57;8.70;99.90
10390;DHT22;5241;47.830;12.972;2023-11-19T11:04:25;8.60;99.90
10390;DHT22;5241;47.830;12.972;2023-11-19T11:06:54;8.50;99.90
10390;DHT22;5241;47.830;12.972;2023-11-19T11:09:21;8.50;99.90
10390;DHT22;5241;47.830;12.972;2023-11-19T11:11:47;8.50;99.90
10390;DHT22;5241;47.830;12.972;2023-11-19T11:14:13;8.50;99.90
10390;DHT22;5241;47.830;12.972;2023-11-19T11:16:46;8.40;99.90
10390;DHT22;5241;47.830;12.972;2023-11-19T11:19:12;8.50;99.90
10390;DHT22;5241;47.830;12.972;2023-11-19T11:21:40;8.60;99.90
10390;DHT22;5241;47.830;12.972;2023-11-19T11:27:11;8.70;99.90
10390;DHT22;5241;47.830;12.972;2023-11-19T11:29:47;8.80;99.90
10390;DHT22;5241;47.830;12.972;2023-11-19T11:32:23;8.90;99.90
10390;DHT22;5241;47.830;12.972;2023-11-19T11:34:58;9.00;99.90
10390;DHT22;5241;47.830;12.972;2023-11-19T11:37:32;9.10;99.90
10390;DHT22;5241;47.830;12.972;2023-11-19T11:39:58;9.00;99.90
10390;DHT22;5241;47.830;12.972;2023-11-19T11:42:31;8.90;99.90
10390;DHT22;5241;47.830;12.972;2023-11-19T11:45:05;8.90;99.90
10390;DHT22;5241;47.830;12.972;2023-11-19T11:50:11;8.70;99.90
10390;DHT22;5241;47.830;12.972;2023-11-19T11:55:28;8.60;99.90
10390;DHT22;5241;47.830;12.972;2023-11-19T11:57:55;8.50;99.90
10390;DHT22;5241;47.830;12.972;2023-11-19T12:00:27;8.40;99.90
10390;DHT22;5241;47.830;12.972;2023-11-19T12:02:55;8.40;99.90
10390;DHT22;5241;47.830;12.972;2023-11-19T12:05:21;8.40;99.90
10390;DHT22;5241;47.830;12.972;2023-11-19T12:08:01;8.50;99.90
10390;DHT22;5241;47.830;12.972;2023-11-19T12:10:31;8.60;99.90
10390;DHT22;5241;47.830;12.972;2023-11-19T12:13:01;8.80;99.90
10390;DHT22;5241;47.830;12.972;2023-11-19T12:15:27;8.90;99.90
10390;DHT22;5241;47.830;12.972;2023-11-19T12:17:54;9.00;99.90
10390;DHT22;5241;47.830;12.972;2023-11-19T12:20:22;9.00;99.90
10390;DHT22;5241;47.830;12.972;2023-11-19T12:22:48;9.00;99.90
10390;DHT22;5241;47.830;12.972;2023-11-19T12:25:15;9.10;99.90
10390;DHT22;5241;47.830;12.972;2023-11-19T12:27:43;9.10;99.90
10390;DHT22;5241;47.830;12.972;2023-11-19T12:30:09;9.20;99.90
10390;DHT22;5241;47.830;12.972;2023-11-19T12:32:41;9.40;99.90
10390;DHT22;5241;47.830;12.972;2023-11-19T12:35:11;9.50;99.90
10390;DHT22;5241;47.830;12.972;2023-11-19T12:37:44;9.50;99.90
10390;DHT22;5241;47.830;12.972;2023-11-19T12:40:19;9.60;99.90
10390;DHT22;5241;47.830;12.972;2023-11-19T12:42:45;9.70;99.90
10390;DHT22;5241;47.830;12.972;2023-11-19T12:45:12;9.80;99.90
10390;DHT22;5241;47.830;12.972;2023-11-19T12:47:40;9.90;99.90
10390;DHT22;5241;47.830;12.972;2023-11-19T12:50:07;10.00;99.90
10390;DHT22;5241;47.830;12.972;2023-11-19T12:52:34;10.30;99.90
10390;DHT22;5241;47.830;12.972;2023-11-19T12:55:01;10.50;99.90
10390;DHT22;5241;47.830;12.972;2023-11-19T12:57:37;10.70;99.90
10390;DHT22;5241;47.830;12.972;2023-11-19T13:00:04;10.80;99.90
10390;DHT22;5241;47.830;12.972;2023-11-19T13:02:49;11.00;99.90
10390;DHT22;5241;47.830;12.972;2023-11-19T13:05:31;11.00;99.90
10390;DHT22;5241;47.830;12.972;2023-11-19T13:07:59;10.90;99.90
10390;DHT22;5241;47.830;12.972;2023-11-19T13:10:28;10.80;99.90
10390;DHT22;5241;47.830;12.972;2023-11-19T13:13:07;11.00;99.90
10390;DHT22;5241;47.830;12.972;2023-11-19T13:15:36;11.00;99.90
10390;DHT22;5241;47.830;12.972;2023-11-19T13:18:02;11.00;99.90
10390;DHT22;5241;47.830;12.972;2023-11-19T13:20:28;11.10;99.90
10390;DHT22;5241;47.830;12.972;2023-11-19T13:22:59;11.20;99.90
10390;DHT22;5241;47.830;12.972;2023-11-19T13:25:25;11.30;99.90
10390;DHT22;5241;47.830;12.972;2023-11-19T13:27:51;11.30;99.90
10390;DHT22;5241;47.830;12.972;2023-11-19T13:30:17;11.40;99.90
10390;DHT22;5241;47.830;12.972;2023-11-19T13:32:43;11.30;99.90
10390;DHT22;5241;47.830;12.972;2023-11-19T13:35:11;11.30;99.90
10390;DHT22;5241;47.830;12.972;2023-11-19T13:37:38;11.20;99.90
10390;DHT22;5241;47.830;12.972;2023-11-19T13:40:04;11.00;99.90
10390;DHT22;5241;47.830;12.972;2023-11-19T13:42:30;10.70;99.90
10390;DHT22;5241;47.830;12.972;2023-11-19T13:44:55;10.70;99.90
10390;DHT22;5241;47.830;12.972;2023-11-19T13:47:21;10.60;99.90
10390;DHT22;5241;47.830;12.972;2023-11-19T13:49:47;10.50;99.90
10390;DHT22;5241;47.830;12.972;2023-11-19T13:52:13;10.50;99.90
10390;DHT22;5241;47.830;12.972;2023-11-19T13:54:38;10.40;99.90
10390;DHT22;5241;47.830;12.972;2023-11-19T13:57:04;10.50;99.90
10390;DHT22;5241;47.830;12.972;2023-11-19T13:59:30;10.50;99.90
10390;DHT22;5241;47.830;12.972;2023-11-19T14:01:58;10.40;99.90
10390;DHT22;5241;47.830;12.972;2023-11-19T14:04:23;10.40;99.90
10390;DHT22;5241;47.830;12.972;2023-11-19T14:06:49;10.40;99.90
10390;DHT22;5241;47.830;12.972;2023-11-19T14:09:14;10.30;99.90
10390;DHT22;5241;47.830;12.972;2023-11-19T14:11:40;10.40;99.90
10390;DHT22;5241;47.830;12.972;2023-11-19T14:14:06;10.40;99.90
10390;DHT22;5241;47.830;12.972;2023-11-19T14:16:31;10.40;99.90
10390;DHT22;5241;47.830;12.972;2023-11-19T14:18:57;10.40;99.90
10390;DHT22;5241;47.830;12.972;2023-11-19T14:21:23;10.30;99.90
10390;DHT22;5241;47.830;12.972;2023-11-19T14:23:50;10.10;99.90
10390;DHT22;5241;47.830;12.972;2023-11-19T14:26:16;10.00;99.90
10390;DHT22;5241;47.830;12.972;2023-11-19T14:28:41;9.90;99.90
10390;DHT22;5241;47.830;12.972;2023-11-19T14:31:07;9.80;99.90
10390;DHT22;5241;47.830;12.972;2023-11-19T14:33:33;9.70;99.90
10390;DHT22;5241;47.830;12.972;2023-11-19T14:36:00;9.60;99.90
10390;DHT22;5241;47.830;12.972;2023-11-19T14:38:26;9.40;99.90
10390;DHT22;5241;47.830;12.972;2023-11-19T14:40:51;9.20;99.90
10390;DHT22;5241;47.830;12.972;2023-11-19T14:43:17;9.20;99.90
10390;DHT22;5241;47.830;12.972;2023-11-19T14:45:42;9.10;99.90
10390;DHT22;5241;47.830;12.972;2023-11-19T14:48:08;9.00;99.90
10390;DHT22;5241;47.830;12.972;2023-11-19T14:50:35;9.10;99.90
10390;DHT22;5241;47.830;12.972;2023-11-19T14:53:01;9.10;99.90
10390;DHT22;5241;47.830;12.972;2023-11-19T14:55:27;9.00;99.90
10390;DHT22;5241;47.830;12.972;2023-11-19T14:57:53;8.90;99.90
10390;DHT22;5241;47.830;12.972;2023-11-19T15:00:19;8.80;99.90
10390;DHT22;5241;47.830;12.972;2023-11-19T15:02:45;8.80;99.90
10390;DHT22;5241;47.830;12.972;2023-11-19T15:05:10;8.80;99.90
10390;DHT22;5241;47.830;12.972;2023-11-19T15:07:39;8.90;99.90
10390;DHT22;5241;47.830;12.972;2023-11-19T15:10:06;8.90;99.90
10390;DHT22;5241;47.830;12.972;2023-11-19T15:12:38;9.00;99.90
10390;DHT22;5241;47.830;12.972;2023-11-19T15:15:09;8.90;99.90
10390;DHT22;5241;47.830;12.972;2023-11-19T15:17:41;8.80;99.90
10390;DHT22;5241;47.830;12.972;2023-11-19T15:20:07;8.80;99.90
10390;DHT22;5241;47.830;12.972;2023-11-19T15:22:33;8.60;99.90
10390;DHT22;5241;47.830;12.972;2023-11-19T15:24:58;8.60;99.90
10390;DHT22;5241;47.830;12.972;2023-11-19T15:27:24;8.40;99.90
10390;DHT22;5241;47.830;12.972;2023-11-19T15:29:49;8.30;99.90
10390;DHT22;5241;47.830;12.972;2023-11-19T15:32:15;8.30;99.90
10390;DHT22;5241;47.830;12.972;2023-11-19T15:34:40;8.30;99.90
10390;DHT22;5241;47.830;12.972;2023-11-19T15:37:07;8.10;99.90
10390;DHT22;5241;47.830;12.972;2023-11-19T15:39:33;8.10;99.90
10390;DHT22;5241;47.830;12.972;2023-11-19T15:42:01;8.10;99.90
10390;DHT22;5241;47.830;12.972;2023-11-19T15:44:27;8.00;99.90
10390;DHT22;5241;47.830;12.972;2023-11-19T15:46:53;7.90;99.90
10390;DHT22;5241;47.830;12.972;2023-11-19T15:49:19;8.10;99.90
10390;DHT22;5241;47.830;12.972;2023-11-19T15:51:44;8.10;99.90
10390;DHT22;5241;47.830;12.972;2023-11-19T15:54:10;8.00;99.90